Time;durP1;ratioP1;P1;durP2;ratioP2;P2;SDS_P1;SDS_P2;PMS_P1;PMS_P2;Temp;Humidity;BMP_temperature;BMP_pressure;BME280_temperature;BME280_humidity;BME280_pressure;Samples;Min_cycle;Max_cycle;Signal;HPM_P1;HPM_P2
2021/03/14 00:02:18;;;;;;;0.60;0.30;;;22.60;31.90;;;;;;5034296;28;20398;-60
2021/03/14 00:04:44;;;;;;;0.90;0.37;;;22.60;31.90;;;;;;5032962;28;20395;-60
2021/03/14 00:07:09;;;;;;;0.50;0.30;;;22.50;31.90;;;;;;5034320;28;20399;-61
2021/03/14 00:09:36;;;;;;;0.80;0.30;;;22.50;31.90;;;;;;5033891;28;20786;-59
2021/03/14 00:12:01;;;;;;;0.82;0.30;;;22.50;32.00;;;;;;5033896;28;20391;-61
2021/03/14 00:14:27;;;;;;;0.63;0.30;;;22.50;31.90;;;;;;5033915;28;20921;-61
2021/03/14 00:16:53;;;;;;;1.17;0.30;;;22.50;31.90;;;;;;5034039;28;20394;-61
2021/03/14 00:19:19;;;;;;;0.50;0.20;;;22.50;31.90;;;;;;5032791;28;20449;-61
2021/03/14 00:21:46;;;;;;;0.47;0.20;;;22.40;32.00;;;;;;5033397;28;20387;-60
2021/03/14 00:24:12;;;;;;;0.80;0.25;;;22.40;31.90;;;;;;5034030;28;20391;-61
2021/03/14 00:26:38;;;;;;;0.50;0.30;;;22.40;31.80;;;;;;5033869;28;20395;-60
2021/03/14 00:29:07;;;;;;;0.70;0.30;;;22.40;31.90;;;;;;5033764;28;20399;-61
2021/03/14 00:31:33;;;;;;;0.70;0.30;;;22.40;31.90;;;;;;5033605;28;20411;-60
2021/03/14 00:33:59;;;;;;;0.63;0.27;;;22.40;31.90;;;;;;5033431;28;20426;-60
2021/03/14 00:36:25;;;;;;;0.65;0.30;;;22.40;32.10;;;;;;5033699;28;20383;-61
2021/03/14 00:38:51;;;;;;;0.70;0.20;;;22.40;32.00;;;;;;5033611;28;20482;-61
2021/03/14 00:41:16;;;;;;;0.80;0.30;;;22.50;31.90;;;;;;5033579;28;20508;-60
2021/03/14 00:43:42;;;;;;;1.00;0.40;;;22.50;31.90;;;;;;5031845;28;20399;-61
2021/03/14 00:46:07;;;;;;;0.53;0.30;;;22.40;31.90;;;;;;5033520;28;20411;-61
2021/03/14 00:48:33;;;;;;;0.60;0.30;;;22.40;32.10;;;;;;5033489;28;20790;-60
2021/03/14 00:50:59;;;;;;;0.50;0.20;;;22.30;32.20;;;;;;5032115;28;20477;-61
2021/03/14 00:53:24;;;;;;;0.30;0.20;;;22.30;32.10;;;;;;5033480;28;20428;-61
2021/03/14 00:55:50;;;;;;;0.90;0.20;;;22.30;32.00;;;;;;5031012;28;20470;-60
2021/03/14 00:58:16;;;;;;;1.38;0.22;;;22.30;32.00;;;;;;5032602;28;20417;-60
2021/03/14 01:00:41;;;;;;;0.60;0.20;;;22.30;32.00;;;;;;5025453;28;20480;-61
2021/03/14 01:03:07;;;;;;;0.40;0.20;;;22.30;32.00;;;;;;5013462;28;20458;-61
2021/03/14 01:05:33;;;;;;;0.80;0.27;;;22.40;32.00;;;;;;5013424;28;20392;-61
2021/03/14 01:07:58;;;;;;;0.60;0.20;;;22.30;32.00;;;;;;5012843;28;20392;-60
2021/03/14 01:10:24;;;;;;;0.47;0.27;;;22.30;32.00;;;;;;5013386;28;20431;-59
2021/03/14 01:12:50;;;;;;;0.43;0.20;;;22.40;32.10;;;;;;5013098;28;20424;-60
2021/03/14 01:15:16;;;;;;;0.43;0.20;;;22.30;32.10;;;;;;5018600;28;20387;-60
2021/03/14 01:17:42;;;;;;;0.40;0.20;;;22.30;32.10;;;;;;5032411;28;20460;-61
2021/03/14 01:20:11;;;;;;;0.55;0.20;;;22.30;32.10;;;;;;5032890;28;20447;-61
2021/03/14 01:22:37;;;;;;;0.40;0.20;;;22.30;32.10;;;;;;5032821;28;20459;-60
2021/03/14 01:25:05;;;;;;;0.43;0.20;;;22.40;32.10;;;;;;5032812;28;20395;-60
2021/03/14 01:27:31;;;;;;;0.28;0.17;;;22.30;32.00;;;;;;5032679;28;20379;-61
2021/03/14 01:29:57;;;;;;;0.32;0.20;;;22.30;32.00;;;;;;5031196;28;20399;-60
2021/03/14 01:32:22;;;;;;;0.30;0.20;;;22.30;31.90;;;;;;5032566;28;20399;-60
2021/03/14 01:34:49;;;;;;;0.80;0.22;;;22.30;32.00;;;;;;5017166;28;20427;-61
2021/03/14 01:37:16;;;;;;;0.45;0.22;;;22.30;32.00;;;;;;5012849;28;20443;-61
2021/03/14 01:39:42;;;;;;;0.65;0.20;;;22.30;32.00;;;;;;5012450;28;20829;-60
2021/03/14 01:42:08;;;;;;;0.50;0.20;;;22.30;32.00;;;;;;5012678;28;20388;-60
2021/03/14 01:44:33;;;;;;;0.40;0.20;;;22.30;31.90;;;;;;5012699;28;20420;-61
2021/03/14 01:47:00;;;;;;;0.70;0.23;;;22.30;32.00;;;;;;5012710;28;20829;-61
2021/03/14 01:49:26;;;;;;;0.38;0.30;;;22.30;32.00;;;;;;5012644;28;20816;-61
2021/03/14 01:51:51;;;;;;;0.20;0.20;;;22.40;32.00;;;;;;5012054;28;20484;-60
2021/03/14 01:54:17;;;;;;;0.40;0.20;;;22.40;31.90;;;;;;5012518;28;20429;-61
2021/03/14 01:56:43;;;;;;;0.50;0.20;;;22.40;31.90;;;;;;5012570;28;20392;-61
2021/03/14 01:59:09;;;;;;;0.38;0.22;;;22.40;31.80;;;;;;5012529;28;20403;-61
2021/03/14 02:01:35;;;;;;;0.40;0.30;;;22.40;31.90;;;;;;5012385;28;20464;-60
2021/03/14 02:04:01;;;;;;;0.47;0.20;;;22.40;31.90;;;;;;5012014;28;20893;-60
2021/03/14 02:06:27;;;;;;;0.30;0.20;;;22.40;31.90;;;;;;5012362;28;20420;-61
2021/03/14 02:08:54;;;;;;;0.50;0.30;;;22.30;31.80;;;;;;5012241;28;20454;-60
2021/03/14 02:11:24;;;;;;;0.50;0.30;;;22.30;31.90;;;;;;5011984;28;20385;-61
2021/03/14 02:13:53;;;;;;;0.52;0.30;;;22.30;31.90;;;;;;5011637;28;20424;-60
2021/03/14 02:16:23;;;;;;;0.40;0.30;;;22.30;31.90;;;;;;5012204;28;20392;-60
2021/03/14 02:18:58;;;;;;;0.60;0.30;;;22.30;31.90;;;;;;5012099;28;20435;-61
2021/03/14 02:21:25;;;;;;;0.50;0.30;;;22.30;31.90;;;;;;5012068;28;20384;-60
2021/03/14 02:23:56;;;;;;;0.52;0.20;;;22.30;31.90;;;;;;5026764;28;20401;-60
2021/03/14 02:26:29;;;;;;;0.40;0.20;;;22.20;31.80;;;;;;5012014;28;20385;-60
2021/03/14 02:28:55;;;;;;;0.40;0.30;;;22.20;31.80;;;;;;5011997;28;20393;-61
2021/03/14 02:31:24;;;;;;;0.45;0.20;;;22.20;31.80;;;;;;5011776;28;20408;-61
2021/03/14 02:33:54;;;;;;;0.90;0.25;;;22.20;31.80;;;;;;5011398;28;20511;-60
2021/03/14 02:36:21;;;;;;;0.38;0.13;;;22.20;31.80;;;;;;5011924;28;20383;-60
2021/03/14 02:38:48;;;;;;;0.55;0.30;;;22.20;31.80;;;;;;5011923;28;20404;-60
2021/03/14 02:41:15;;;;;;;0.50;0.20;;;22.20;31.80;;;;;;5026993;28;20396;-60
2021/03/14 02:43:41;;;;;;;0.40;0.20;;;22.20;31.80;;;;;;5011612;28;20907;-60
2021/03/14 02:46:07;;;;;;;0.57;0.20;;;22.20;31.90;;;;;;5011519;28;20397;-61
2021/03/14 02:48:36;;;;;;;0.50;0.20;;;22.20;31.80;;;;;;5011778;28;20836;-60
2021/03/14 02:51:02;;;;;;;0.82;0.30;;;22.20;31.90;;;;;;5011657;28;20389;-60
2021/03/14 02:53:29;;;;;;;0.52;0.22;;;22.20;31.90;;;;;;5011661;28;20455;-60
2021/03/14 02:55:56;;;;;;;0.90;0.30;;;22.20;31.80;;;;;;5011201;28;20400;-60
2021/03/14 02:58:23;;;;;;;0.40;0.20;;;22.10;31.80;;;;;;5011630;28;20741;-61
2021/03/14 03:00:50;;;;;;;0.40;0.20;;;22.10;31.70;;;;;;5011346;28;20392;-60
2021/03/14 03:03:19;;;;;;;0.47;0.17;;;22.10;31.70;;;;;;5024301;28;20736;-61
2021/03/14 03:05:46;;;;;;;0.40;0.20;;;22.10;31.70;;;;;;5030852;28;20427;-60
2021/03/14 03:08:12;;;;;;;0.32;0.20;;;22.10;31.70;;;;;;5031324;28;20390;-61
2021/03/14 03:10:43;;;;;;;0.40;0.20;;;22.10;31.60;;;;;;5016773;28;20400;-60
2021/03/14 03:13:10;;;;;;;0.30;0.20;;;22.20;31.70;;;;;;5011551;28;20947;-61
2021/03/14 03:15:37;;;;;;;0.40;0.20;;;22.10;31.60;;;;;;5011463;28;20427;-61
2021/03/14 03:18:04;;;;;;;0.43;0.20;;;22.20;31.70;;;;;;5011107;28;20481;-60
2021/03/14 03:20:30;;;;;;;0.57;0.20;;;22.20;31.70;;;;;;5011511;28;20527;-61
2021/03/14 03:22:57;;;;;;;0.30;0.20;;;22.20;31.70;;;;;;5013682;28;20427;-61
2021/03/14 03:25:24;;;;;;;0.47;0.15;;;22.20;31.60;;;;;;5023737;28;20399;-61
2021/03/14 03:27:50;;;;;;;0.30;0.10;;;22.20;31.60;;;;;;5034421;28;20387;-60
2021/03/14 03:30:18;;;;;;;0.40;0.20;;;22.20;31.50;;;;;;5050419;28;20387;-61
2021/03/14 03:32:44;;;;;;;0.50;0.20;;;22.20;31.50;;;;;;5034620;28;20441;-61
2021/03/14 03:35:12;;;;;;;0.20;0.10;;;22.20;31.60;;;;;;5034938;28;20557;-61
2021/03/14 03:37:37;;;;;;;0.47;0.20;;;22.10;31.70;;;;;;5034701;28;20444;-60
2021/03/14 03:40:06;;;;;;;0.47;0.20;;;22.10;31.70;;;;;;5034437;28;20407;-61
2021/03/14 03:42:35;;;;;;;0.43;0.20;;;22.10;31.70;;;;;;5034867;28;20421;-61
2021/03/14 03:45:04;;;;;;;0.40;0.13;;;22.10;31.60;;;;;;5034720;28;20391;-60
2021/03/14 03:47:30;;;;;;;0.35;0.20;;;22.10;31.60;;;;;;5034706;28;20383;-61
2021/03/14 03:49:57;;;;;;;0.35;0.20;;;22.10;31.60;;;;;;5034143;28;20395;-60
2021/03/14 03:52:24;;;;;;;0.28;0.10;;;22.10;31.60;;;;;;5020300;28;20385;-60
2021/03/14 03:54:52;;;;;;;0.28;0.13;;;22.10;31.60;;;;;;5014790;28;20428;-61
2021/03/14 03:57:19;;;;;;;0.50;0.10;;;22.00;31.50;;;;;;5014706;28;20451;-60
2021/03/14 03:59:47;;;;;;;0.30;0.20;;;22.10;31.50;;;;;;5013175;28;20471;-60
2021/03/14 04:02:14;;;;;;;0.70;0.30;;;22.10;31.50;;;;;;5014470;28;20385;-60
2021/03/14 04:04:43;;;;;;;0.30;0.20;;;22.10;31.50;;;;;;5014478;28;20393;-61
2021/03/14 04:07:11;;;;;;;0.20;0.10;;;22.10;31.50;;;;;;5029792;28;20484;-61
2021/03/14 04:09:38;;;;;;;0.90;0.30;;;22.10;31.50;;;;;;5014397;28;20401;-61
2021/03/14 04:12:06;;;;;;;0.70;0.20;;;22.10;31.50;;;;;;5014007;28;20443;-60
2021/03/14 04:14:33;;;;;;;0.25;0.10;;;22.00;31.50;;;;;;5014244;28;20929;-60
2021/03/14 04:16:59;;;;;;;0.30;0.20;;;22.00;31.50;;;;;;5018492;28;20875;-60
2021/03/14 04:19:28;;;;;;;0.40;0.20;;;22.00;31.50;;;;;;5023847;28;20393;-60
2021/03/14 04:21:55;;;;;;;0.20;0.10;;;22.00;31.50;;;;;;5013702;28;20389;-60
2021/03/14 04:24:23;;;;;;;0.57;0.10;;;22.00;31.50;;;;;;5014281;28;20468;-60
2021/03/14 04:26:50;;;;;;;0.35;0.20;;;22.00;31.40;;;;;;5014085;28;20389;-61
2021/03/14 04:29:17;;;;;;;0.40;0.10;;;22.00;31.50;;;;;;5014192;28;20385;-60
2021/03/14 04:31:45;;;;;;;0.22;0.20;;;22.00;31.50;;;;;;5013948;28;20409;-61
2021/03/14 04:34:14;;;;;;;0.22;0.10;;;22.00;31.40;;;;;;5028822;28;20420;-60
2021/03/14 04:36:41;;;;;;;0.32;0.13;;;22.10;31.40;;;;;;5013727;28;20398;-60
2021/03/14 04:39:08;;;;;;;0.40;0.13;;;22.00;31.40;;;;;;5029167;28;20859;-60
2021/03/14 04:41:35;;;;;;;0.20;0.10;;;22.10;31.40;;;;;;5013913;28;20388;-61
2021/03/14 04:44:05;;;;;;;0.30;0.20;;;22.10;31.40;;;;;;5013370;28;20401;-60
2021/03/14 04:46:31;;;;;;;0.28;0.17;;;22.10;31.40;;;;;;5013805;28;20389;-60
2021/03/14 04:48:57;;;;;;;0.10;0.10;;;22.00;31.40;;;;;;5013702;28;20745;-61
2021/03/14 04:51:27;;;;;;;0.15;0.10;;;22.00;31.30;;;;;;5013781;28;20395;-60
2021/03/14 04:53:55;;;;;;;0.33;0.20;;;22.00;31.20;;;;;;5013085;28;20421;-60
2021/03/14 04:56:22;;;;;;;0.38;0.17;;;22.00;31.30;;;;;;5013572;28;20385;-61
2021/03/14 04:58:49;;;;;;;0.30;0.10;;;22.00;31.40;;;;;;5013393;28;20808;-60
2021/03/14 05:01:18;;;;;;;0.30;0.20;;;22.00;31.40;;;;;;5013561;28;20432;-61
2021/03/14 05:03:45;;;;;;;0.20;0.10;;;22.00;31.40;;;;;;5013414;28;20496;-61
2021/03/14 05:06:15;;;;;;;0.10;0.10;;;21.90;31.40;;;;;;5012964;28;20404;-61
2021/03/14 05:08:43;;;;;;;0.40;0.20;;;21.90;31.40;;;;;;5013308;28;20403;-60
2021/03/14 05:11:09;;;;;;;0.30;0.20;;;21.90;31.40;;;;;;5013440;28;20787;-61
2021/03/14 05:13:37;;;;;;;0.22;0.20;;;21.90;31.40;;;;;;5013068;28;20919;-61
2021/03/14 05:16:04;;;;;;;0.43;0.20;;;21.90;31.30;;;;;;5012817;28;20413;-60
2021/03/14 05:18:30;;;;;;;0.40;0.20;;;21.90;31.40;;;;;;5013165;28;20381;-60
2021/03/14 05:20:57;;;;;;;0.50;0.20;;;21.90;31.30;;;;;;5013141;28;20869;-61
2021/03/14 05:23:23;;;;;;;0.40;0.20;;;21.90;31.30;;;;;;5013126;28;20393;-61
2021/03/14 05:25:50;;;;;;;0.30;0.20;;;21.90;31.30;;;;;;5012678;28;20912;-60
2021/03/14 05:28:19;;;;;;;0.30;0.20;;;21.90;31.20;;;;;;5012832;28;20780;-60
2021/03/14 05:30:45;;;;;;;0.45;0.30;;;21.90;31.20;;;;;;5012807;28;20490;-60
2021/03/14 05:33:11;;;;;;;0.30;0.20;;;21.90;31.30;;;;;;5012887;28;20440;-60
2021/03/14 05:35:37;;;;;;;0.40;0.20;;;21.80;31.20;;;;;;5012928;28;20791;-61
2021/03/14 05:38:03;;;;;;;0.40;0.20;;;21.90;31.20;;;;;;5012397;28;20396;-60
2021/03/14 05:40:29;;;;;;;0.40;0.20;;;21.80;31.20;;;;;;5012838;28;20439;-60
2021/03/14 05:42:57;;;;;;;0.20;0.10;;;21.80;31.20;;;;;;5012796;28;20412;-61
2021/03/14 05:45:23;;;;;;;0.22;0.15;;;21.80;31.10;;;;;;5012209;28;20377;-61
2021/03/14 05:47:50;;;;;;;0.30;0.10;;;21.80;31.10;;;;;;5012525;28;20893;-59
2021/03/14 05:50:21;;;;;;;0.40;0.20;;;21.80;31.20;;;;;;5012520;28;20483;-60
2021/03/14 05:52:48;;;;;;;0.35;0.20;;;21.80;31.10;;;;;;5012595;28;20393;-60
2021/03/14 05:55:17;;;;;;;0.30;0.20;;;21.80;31.10;;;;;;5012567;28;20405;-61
2021/03/14 05:57:45;;;;;;;0.30;0.20;;;21.80;31.10;;;;;;5012613;28;20381;-60
2021/03/14 06:00:14;;;;;;;0.30;0.20;;;21.80;31.10;;;;;;5012033;28;20396;-60
2021/03/14 06:02:41;;;;;;;0.30;0.20;;;21.80;31.10;;;;;;5012338;28;20385;-60
2021/03/14 06:05:09;;;;;;;0.20;0.20;;;21.80;31.70;;;;;;5012326;28;20419;-61
2021/03/14 06:07:35;;;;;;;0.38;0.20;;;21.80;31.10;;;;;;5012208;28;20390;-61
2021/03/14 06:10:01;;;;;;;0.32;0.20;;;21.80;31.00;;;;;;5027117;28;20417;-61
2021/03/14 06:12:29;;;;;;;0.25;0.20;;;21.80;31.10;;;;;;5012293;28;20389;-61
2021/03/14 06:14:55;;;;;;;0.30;0.20;;;21.80;30.90;;;;;;5027276;28;20447;-61
2021/03/14 06:17:21;;;;;;;0.30;0.20;;;21.80;30.90;;;;;;5012209;28;20389;-61
2021/03/14 06:19:46;;;;;;;0.30;0.10;;;21.80;30.80;;;;;;5012141;28;20395;-61
2021/03/14 06:22:22;;;;;;;0.70;0.30;;;21.80;30.80;;;;;;5011649;28;20416;-60
2021/03/14 06:24:49;;;;;;;0.20;0.13;;;21.80;30.80;;;;;;5012084;28;20436;-61
2021/03/14 06:27:34;;;;;;;0.22;0.10;;;21.70;30.80;;;;;;5027069;28;20430;-61
2021/03/14 06:30:00;;;;;;;0.30;0.20;;;21.80;30.90;;;;;;5011615;28;20404;-60
2021/03/14 06:32:27;;;;;;;0.30;0.30;;;21.80;30.90;;;;;;5011867;28;20407;-61
2021/03/14 06:35:15;;;;;;;0.10;0.10;;;21.70;30.70;;;;;;5011834;28;20513;-60
2021/03/14 06:37:41;;;;;;;0.22;0.15;;;21.70;30.80;;;;;;5011855;28;20527;-61
2021/03/14 06:40:10;;;;;;;0.25;0.15;;;21.70;30.80;;;;;;5026633;28;20636;-61
2021/03/14 06:42:39;;;;;;;0.30;0.20;;;21.70;30.80;;;;;;5011842;28;20389;-60
2021/03/14 06:45:11;;;;;;;0.30;0.17;;;21.70;30.80;;;;;;5011977;28;20393;-60
2021/03/14 06:47:44;;;;;;;0.15;0.10;;;21.70;30.80;;;;;;5011797;28;20442;-61
2021/03/14 06:50:37;;;;;;;0.17;0.10;;;21.70;30.70;;;;;;5011297;28;20523;-60
2021/03/14 06:53:19;;;;;;;0.33;0.20;;;21.70;30.80;;;;;;5004800;28;20420;-61
2021/03/14 06:55:49;;;;;;;0.50;0.10;;;21.70;30.80;;;;;;5011667;28;20539;-61
2021/03/14 06:58:23;;;;;;;0.30;0.10;;;21.70;30.80;;;;;;5014211;28;20468;-61
2021/03/14 07:01:09;;;;;;;0.17;0.10;;;21.70;30.80;;;;;;5016949;28;20397;-60
2021/03/14 07:03:35;;;;;;;0.30;0.10;;;21.70;30.80;;;;;;5024712;28;20385;-60
2021/03/14 07:06:20;;;;;;;0.10;0.10;;;21.70;30.80;;;;;;5052110;28;20457;-60
2021/03/14 07:08:48;;;;;;;0.30;0.10;;;21.70;30.70;;;;;;5015634;28;20907;-60
2021/03/14 07:11:42;;;;;;;0.30;0.10;;;21.70;30.80;;;;;;5015951;28;20385;-60
2021/03/14 07:14:15;;;;;;;0.20;0.10;;;21.70;30.80;;;;;;5014459;28;20435;-60
2021/03/14 07:16:58;;;;;;;2.55;0.20;;;21.70;30.70;;;;;;5015413;28;20391;-60
2021/03/14 07:19:31;;;;;;;0.80;0.25;;;21.80;31.00;;;;;;5015488;28;20413;-60
2021/03/14 07:22:19;;;;;;;2.10;0.20;;;21.80;31.00;;;;;;5015044;28;20388;-60
2021/03/14 07:24:45;;;;;;;1.20;0.28;;;21.70;30.30;;;;;;5015277;28;20877;-60
2021/03/14 07:27:13;;;;;;;1.98;0.20;;;21.70;30.50;;;;;;5015255;28;20393;-60
2021/03/14 07:29:39;;;;;;;1.55;0.50;;;21.60;30.60;;;;;;5015148;28;20439;-60
2021/03/14 07:32:07;;;;;;;2.92;0.22;;;21.60;30.80;;;;;;5014508;28;20408;-60
2021/03/14 07:34:33;;;;;;;1.90;0.20;;;21.60;30.70;;;;;;5014977;28;20445;-60
2021/03/14 07:36:59;;;;;;;1.83;0.20;;;21.60;31.00;;;;;;5015069;28;20455;-61
2021/03/14 07:39:25;;;;;;;0.80;0.40;;;21.60;31.00;;;;;;5014961;28;20419;-60
2021/03/14 07:41:51;;;;;;;0.98;0.20;;;21.60;31.10;;;;;;5014898;28;20873;-60
2021/03/14 07:44:22;;;;;;;0.30;0.10;;;21.50;31.00;;;;;;5014448;28;20500;-60
2021/03/14 07:46:50;;;;;;;1.30;0.20;;;21.50;31.60;;;;;;5013654;28;20912;-60
2021/03/14 07:49:18;;;;;;;1.35;0.30;;;21.50;31.30;;;;;;5014520;28;20891;-60
2021/03/14 07:51:47;;;;;;;0.82;0.20;;;21.50;31.30;;;;;;5014764;28;20468;-60
2021/03/14 07:54:19;;;;;;;1.00;0.30;;;21.50;31.20;;;;;;5014196;28;20420;-61
2021/03/14 07:56:47;;;;;;;1.90;0.20;;;21.50;31.40;;;;;;5024856;28;20399;-59
2021/03/14 07:59:13;;;;;;;0.45;0.15;;;21.50;31.20;;;;;;5043216;28;20395;-60
2021/03/14 08:01:40;;;;;;;1.45;0.30;;;21.50;31.20;;;;;;5034303;28;20383;-60
2021/03/14 08:04:32;;;;;;;1.10;0.32;;;21.50;31.20;;;;;;5033330;28;20810;-60
2021/03/14 08:06:59;;;;;;;3.78;0.40;;;21.50;31.70;;;;;;5034073;28;20414;-59
2021/03/14 08:09:50;;;;;;;2.23;0.37;;;21.40;31.60;;;;;;5033483;28;20394;-59
2021/03/14 08:12:23;;;;;;;3.17;0.30;;;21.40;31.60;;;;;;5033438;28;20739;-60
2021/03/14 08:14:52;;;;;;;3.63;0.40;;;21.40;31.60;;;;;;5026875;28;20502;-60
2021/03/14 08:17:22;;;;;;;1.27;0.20;;;21.40;31.60;;;;;;5024425;28;20882;-60
2021/03/14 08:19:50;;;;;;;2.15;0.40;;;21.40;31.70;;;;;;5020069;28;20777;-60
2021/03/14 08:22:37;;;;;;;1.40;0.30;;;21.40;31.90;;;;;;5022943;28;20389;-59
2021/03/14 08:25:28;;;;;;;2.35;0.38;;;21.40;31.90;;;;;;5013966;28;20389;-60
2021/03/14 08:27:57;;;;;;;2.92;0.30;;;21.40;31.80;;;;;;5012574;28;20480;-60
2021/03/14 08:30:41;;;;;;;3.17;0.70;;;21.40;32.00;;;;;;5013502;28;20407;-60
2021/03/14 08:33:21;;;;;;;1.13;0.40;;;21.40;32.00;;;;;;5013732;28;20777;-60
2021/03/14 08:36:03;;;;;;;1.20;0.30;;;21.40;32.00;;;;;;5013639;28;20888;-60
2021/03/14 08:38:41;;;;;;;4.25;0.40;;;21.30;32.00;;;;;;5013732;28;20397;-60
2021/03/14 08:41:24;;;;;;;1.40;0.30;;;21.30;32.10;;;;;;5028824;28;20424;-59
2021/03/14 08:44:01;;;;;;;2.97;0.40;;;21.30;32.10;;;;;;5013610;28;20389;-60
2021/03/14 08:46:45;;;;;;;8.00;0.57;;;21.30;32.10;;;;;;5013426;28;20447;-60
2021/03/14 08:49:12;;;;;;;6.55;0.40;;;21.40;32.40;;;;;;5013403;28;20885;-60
2021/03/14 08:51:38;;;;;;;8.10;0.57;;;21.40;32.80;;;;;;5013306;28;20432;-60
2021/03/14 08:54:04;;;;;;;5.13;0.40;;;21.40;32.60;;;;;;5012822;28;20420;-58
2021/03/14 08:56:29;;;;;;;3.20;0.40;;;21.30;32.40;;;;;;5013338;28;20385;-60
2021/03/14 08:59:11;;;;;;;4.07;0.30;;;21.40;32.40;;;;;;5013255;28;20451;-60
2021/03/14 09:01:38;;;;;;;4.60;0.32;;;21.30;32.60;;;;;;5013221;28;20742;-60
2021/03/14 09:04:10;;;;;;;1.40;0.40;;;21.30;32.60;;;;;;5012976;28;20392;-60
2021/03/14 09:06:36;;;;;;;3.05;0.50;;;21.30;32.50;;;;;;5013079;28;20539;-60
2021/03/14 09:09:06;;;;;;;1.60;0.30;;;21.30;32.50;;;;;;5013114;28;20879;-60
2021/03/14 09:11:54;;;;;;;2.75;0.40;;;21.30;32.50;;;;;;5012950;28;20389;-60
2021/03/14 09:14:26;;;;;;;2.90;0.40;;;21.30;32.50;;;;;;5012474;28;20841;-60
2021/03/14 09:16:53;;;;;;;2.15;0.30;;;21.30;32.50;;;;;;5012940;28;20385;-60
2021/03/14 09:19:25;;;;;;;4.10;0.50;;;21.30;32.50;;;;;;5012388;28;20397;-60
2021/03/14 09:21:59;;;;;;;1.70;0.35;;;21.30;32.70;;;;;;5012794;28;21086;-59
2021/03/14 09:24:32;;;;;;;4.63;0.52;;;21.30;32.60;;;;;;5012544;28;20401;-60
2021/03/14 09:27:07;;;;;;;6.07;0.50;;;21.40;32.70;;;;;;5011878;28;20900;-60
2021/03/14 09:29:38;;;;;;;3.40;0.63;;;21.40;33.00;;;;;;5017442;28;20510;-60
2021/03/14 09:32:14;;;;;;;3.53;0.40;;;21.30;33.10;;;;;;5022539;28;20467;-59
2021/03/14 09:34:39;;;;;;;4.20;0.40;;;21.20;33.40;;;;;;5021258;28;20418;-60
2021/03/14 09:37:06;;;;;;;5.53;0.55;;;21.20;33.60;;;;;;5020862;28;20756;-59
2021/03/14 09:39:32;;;;;;;8.10;0.60;;;21.20;33.70;;;;;;5020599;28;20440;-60
2021/03/14 09:41:57;;;;;;;3.60;0.43;;;21.20;33.70;;;;;;5021907;28;20391;-60
2021/03/14 09:44:23;;;;;;;2.20;0.35;;;21.20;33.80;;;;;;5019887;28;20401;-60
2021/03/14 09:46:56;;;;;;;1.83;0.30;;;21.10;33.90;;;;;;5022052;28;20385;-60
2021/03/14 09:49:22;;;;;;;4.25;0.50;;;21.20;33.40;;;;;;5022665;28;20400;-60
2021/03/14 09:51:56;;;;;;;2.25;0.40;;;21.20;34.00;;;;;;5020912;28;20898;-60
2021/03/14 09:54:23;;;;;;;3.95;0.45;;;21.20;34.20;;;;;;5019515;28;20905;-60
2021/03/14 09:56:54;;;;;;;4.80;0.40;;;21.30;34.00;;;;;;5020876;28;20804;-60
2021/03/14 09:59:28;;;;;;;4.55;0.70;;;21.30;33.50;;;;;;5021890;28;20399;-60
2021/03/14 10:01:56;;;;;;;4.70;0.50;;;21.20;33.50;;;;;;5021557;28;20404;-60
2021/03/14 10:04:22;;;;;;;5.00;0.50;;;21.30;33.30;;;;;;5019705;28;20784;-60
2021/03/14 10:06:48;;;;;;;3.28;0.60;;;21.40;33.10;;;;;;5020765;28;20867;-60
2021/03/14 10:09:20;;;;;;;3.07;0.40;;;21.30;32.90;;;;;;5021479;28;20415;-61
2021/03/14 10:11:47;;;;;;;2.58;0.63;;;21.30;33.20;;;;;;5022592;28;20386;-60
2021/03/14 10:14:18;;;;;;;4.07;0.50;;;21.20;33.00;;;;;;5019256;28;20418;-60
2021/03/14 10:16:45;;;;;;;1.93;0.43;;;21.20;33.00;;;;;;5021152;28;20528;-60
2021/03/14 10:19:11;;;;;;;1.60;0.70;;;21.20;32.90;;;;;;5020849;28;20392;-61
2021/03/14 10:21:44;;;;;;;1.60;0.60;;;21.30;32.90;;;;;;5019509;28;20440;-60
2021/03/14 10:24:24;;;;;;;1.60;0.52;;;21.30;32.80;;;;;;5019952;28;20904;-60
2021/03/14 10:27:01;;;;;;;1.70;0.52;;;21.30;32.80;;;;;;5021293;28;20431;-60
2021/03/14 10:29:29;;;;;;;3.83;0.55;;;21.30;32.70;;;;;;5019613;28;20404;-60
2021/03/14 10:31:55;;;;;;;1.52;0.40;;;21.30;32.70;;;;;;5019095;28;20906;-60
2021/03/14 10:34:22;;;;;;;1.50;0.50;;;21.30;32.70;;;;;;5021113;28;20414;-60
2021/03/14 10:36:49;;;;;;;2.63;0.50;;;21.30;32.60;;;;;;5020008;28;20393;-60
2021/03/14 10:39:31;;;;;;;3.08;0.50;;;21.40;33.30;;;;;;5019709;28;20407;-60
2021/03/14 10:41:57;;;;;;;1.38;0.57;;;21.40;32.60;;;;;;5021204;28;20471;-60
2021/03/14 10:44:24;;;;;;;1.42;0.40;;;21.40;32.60;;;;;;5018112;28;20553;-60
2021/03/14 10:46:53;;;;;;;1.88;0.50;;;21.40;32.50;;;;;;5021208;28;20383;-60
2021/03/14 10:49:27;;;;;;;1.30;0.40;;;21.40;32.50;;;;;;5014016;28;20897;-60
2021/03/14 10:51:56;;;;;;;1.88;0.70;;;21.40;32.40;;;;;;5011608;28;20873;-60
2021/03/14 10:54:30;;;;;;;1.30;0.47;;;21.40;32.40;;;;;;5011094;28;20420;-60
2021/03/14 10:56:56;;;;;;;1.10;0.30;;;21.40;32.40;;;;;;5011754;28;20857;-60
2021/03/14 10:59:22;;;;;;;0.90;0.47;;;21.40;32.90;;;;;;5011751;28;20560;-60
2021/03/14 11:01:52;;;;;;;1.10;0.40;;;21.40;32.30;;;;;;5011491;28;20393;-60
2021/03/14 11:04:26;;;;;;;1.75;0.50;;;21.40;32.20;;;;;;5011019;28;20486;-60
2021/03/14 11:06:52;;;;;;;2.13;0.47;;;21.40;32.10;;;;;;5011491;28;20393;-60
2021/03/14 11:09:19;;;;;;;2.53;0.50;;;21.40;32.20;;;;;;5011468;28;20466;-60
2021/03/14 11:11:46;;;;;;;1.02;0.40;;;21.50;32.20;;;;;;5011427;28;20396;-60
2021/03/14 11:14:31;;;;;;;0.90;0.40;;;21.50;32.10;;;;;;5010975;28;20760;-59
2021/03/14 11:17:07;;;;;;;1.42;0.45;;;21.40;32.10;;;;;;5011538;28;20428;-60
2021/03/14 11:19:33;;;;;;;1.50;0.50;;;21.40;32.20;;;;;;5011288;28;20411;-60
2021/03/14 11:21:59;;;;;;;0.70;0.40;;;21.40;32.10;;;;;;5015927;28;20469;-60
2021/03/14 11:24:25;;;;;;;0.97;0.53;;;21.40;32.10;;;;;;5017166;28;20822;-61
2021/03/14 11:26:50;;;;;;;5.07;0.77;;;21.40;32.00;;;;;;5019365;28;20937;-60
2021/03/14 11:29:16;;;;;;;1.00;0.40;;;21.50;32.10;;;;;;5020878;28;20387;-60
2021/03/14 11:31:42;;;;;;;0.70;0.30;;;21.40;32.00;;;;;;5019013;28;20893;-60
2021/03/14 11:34:07;;;;;;;0.60;0.20;;;21.50;32.00;;;;;;5019447;28;20907;-59
2021/03/14 11:36:33;;;;;;;1.15;0.30;;;21.50;32.00;;;;;;5020473;28;20420;-60
2021/03/14 11:38:59;;;;;;;0.80;0.30;;;21.50;32.00;;;;;;5018634;28;20480;-60
2021/03/14 11:41:24;;;;;;;0.65;0.30;;;21.50;32.00;;;;;;5020107;28;20478;-60
2021/03/14 11:43:50;;;;;;;0.90;0.30;;;21.40;31.90;;;;;;5022206;28;20427;-60
2021/03/14 11:46:16;;;;;;;1.00;0.40;;;21.50;31.90;;;;;;5022063;28;20785;-60
2021/03/14 11:48:42;;;;;;;0.50;0.22;;;21.50;31.90;;;;;;5024123;28;20407;-60
2021/03/14 11:51:07;;;;;;;1.40;0.60;;;21.50;31.80;;;;;;5022488;28;20488;-60
2021/03/14 11:53:33;;;;;;;0.70;0.40;;;21.50;31.70;;;;;;5022915;28;21083;-61
2021/03/14 11:56:00;;;;;;;0.90;0.40;;;21.50;31.70;;;;;;5023280;28;20395;-60
2021/03/14 11:58:25;;;;;;;1.00;0.30;;;21.60;31.70;;;;;;5023351;28;20392;-60
2021/03/14 12:00:51;;;;;;;0.68;0.30;;;21.60;31.70;;;;;;5021814;28;20453;-60
2021/03/14 12:03:16;;;;;;;0.90;0.40;;;21.60;31.60;;;;;;5023428;28;20395;-60
2021/03/14 12:05:43;;;;;;;1.25;0.30;;;21.60;31.70;;;;;;5023045;28;20872;-60
2021/03/14 12:08:09;;;;;;;5.55;0.63;;;21.60;31.60;;;;;;5021338;28;20393;-59
2021/03/14 12:10:35;;;;;;;2.17;0.50;;;21.60;31.40;;;;;;5033452;28;20399;-60
2021/03/14 12:13:01;;;;;;;1.63;0.50;;;21.60;31.30;;;;;;5033693;28;20400;-60
2021/03/14 12:15:26;;;;;;;3.63;0.60;;;21.60;31.50;;;;;;5033917;28;20395;-60
2021/03/14 12:17:52;;;;;;;4.65;0.60;;;21.60;31.80;;;;;;5033969;28;20875;-61
2021/03/14 12:20:18;;;;;;;5.73;0.80;;;21.60;32.60;;;;;;5033332;28;20486;-59
2021/03/14 12:22:43;;;;;;;5.22;1.85;;;21.60;33.40;;;;;;5023940;28;20385;-60
2021/03/14 12:25:09;;;;;;;6.38;3.38;;;21.80;33.70;;;;;;5013675;28;20745;-60
2021/03/14 12:27:35;;;;;;;8.00;3.50;;;21.90;33.50;;;;;;5013881;28;20580;-60
2021/03/14 12:30:01;;;;;;;6.77;3.50;;;22.00;33.50;;;;;;5013865;28;20471;-60
2021/03/14 12:32:27;;;;;;;7.07;3.70;;;22.10;33.00;;;;;;5013305;28;20893;-61
2021/03/14 12:34:52;;;;;;;7.27;3.57;;;22.20;34.80;;;;;;5013601;28;20463;-60
2021/03/14 12:37:18;;;;;;;7.15;4.38;;;22.30;34.20;;;;;;5013750;28;20480;-60
2021/03/14 12:39:44;;;;;;;7.90;3.80;;;22.40;33.90;;;;;;5012378;28;20401;-60
2021/03/14 12:42:09;;;;;;;6.95;3.45;;;22.40;33.70;;;;;;5013391;28;20388;-59
2021/03/14 12:44:35;;;;;;;9.17;3.30;;;22.40;34.10;;;;;;5013255;28;20397;-60
2021/03/14 12:47:00;;;;;;;8.63;3.00;;;22.50;34.40;;;;;;5013280;28;20401;-60
2021/03/14 12:49:26;;;;;;;5.30;3.00;;;22.50;34.40;;;;;;5013504;28;20487;-61
2021/03/14 12:51:52;;;;;;;6.18;3.13;;;22.60;33.70;;;;;;5013402;28;20389;-60
2021/03/14 12:54:17;;;;;;;6.47;3.23;;;22.60;33.80;;;;;;5012524;28;20492;-60
2021/03/14 12:56:43;;;;;;;7.43;4.07;;;22.70;34.90;;;;;;5012603;28;20400;-60